Terminal Aerodrome Forecast
Issued by NWS Bismarck, ND

Home | Current Version | Previous Version | Text Only | Print | Product List | Glossary On
Versions: 1 2 3 4 5 6 7 8 9 10 11 12 13 14 15 16 17 18 19 20 21 22 23 24
000
FTUS43 KBIS 190500
TAFISN
TAF
KISN 190532Z 1906/2006 20003KT 2SM BR OVC003
      TEMPO 1908/1912 1/4SM FZFG OVC002
     FM191500 25005KT P6SM SCT100
     FM200100 17003KT P6SM SCT100=

USA.gov is the U.S. government's official web portal to all federal, state and local government web resources and services.